createdAt,value
2022-12-18T00:01:36.242Z,22.40
2022-12-18T00:04:05.417Z,22.40
2022-12-18T00:06:33.532Z,22.40
2022-12-18T00:09:01.343Z,22.40
2022-12-18T00:11:31.010Z,22.40
2022-12-18T00:13:59.524Z,22.40
2022-12-18T00:16:27.703Z,22.40
2022-12-18T00:18:56.985Z,22.30
2022-12-18T00:21:23.898Z,22.30
2022-12-18T00:23:51.434Z,22.40
2022-12-18T00:26:21.456Z,22.40
2022-12-18T00:28:50.865Z,22.40
2022-12-18T00:31:23.588Z,22.40
2022-12-18T00:33:55.534Z,22.50
2022-12-18T00:36:25.306Z,22.50
2022-12-18T00:38:54.442Z,22.50
2022-12-18T00:41:21.634Z,22.50
2022-12-18T00:43:48.440Z,22.50
2022-12-18T00:46:15.202Z,22.50
2022-12-18T00:48:42.046Z,22.50
2022-12-18T00:51:08.874Z,22.50
2022-12-18T00:53:36.144Z,22.50
2022-12-18T00:56:03.158Z,22.40
2022-12-18T00:58:29.961Z,22.30
2022-12-18T01:00:56.758Z,22.20
2022-12-18T01:03:23.605Z,22.10
2022-12-18T01:05:50.576Z,22.10
2022-12-18T01:08:19.022Z,22.00
2022-12-18T01:10:45.877Z,22.00
2022-12-18T01:13:12.938Z,21.90
2022-12-18T01:15:39.812Z,21.90
2022-12-18T01:18:07.499Z,21.80
2022-12-18T01:20:34.497Z,21.70
2022-12-18T01:23:01.487Z,21.60
2022-12-18T01:25:28.317Z,21.60
2022-12-18T01:27:55.102Z,21.60
2022-12-18T01:30:21.941Z,21.60
2022-12-18T01:32:48.750Z,21.50
2022-12-18T01:35:15.625Z,21.40
2022-12-18T01:37:42.383Z,21.40
2022-12-18T01:40:09.814Z,21.30
2022-12-18T01:42:36.871Z,21.30
2022-12-18T01:45:25.326Z,21.20
2022-12-18T01:48:01.668Z,21.20
2022-12-18T01:50:41.352Z,21.10
2022-12-18T01:53:17.874Z,21.10
2022-12-18T01:55:49.257Z,21.10
2022-12-18T01:58:17.094Z,21.00
2022-12-18T02:00:44.382Z,21.00
2022-12-18T02:03:12.200Z,21.00
2022-12-18T02:05:48.953Z,20.90
2022-12-18T02:08:23.909Z,20.90
2022-12-18T02:11:27.272Z,20.90
2022-12-18T02:14:09.190Z,20.90
2022-12-18T02:17:00.352Z,20.80
2022-12-18T02:19:39.435Z,20.80
2022-12-18T02:22:21.861Z,20.70
2022-12-18T02:25:25.038Z,20.70
2022-12-18T02:27:53.451Z,20.80
2022-12-18T02:30:22.600Z,20.80
2022-12-18T02:32:54.795Z,20.90
2022-12-18T02:35:25.284Z,21.00
2022-12-18T02:37:56.995Z,21.00
2022-12-18T02:40:28.303Z,21.00
2022-12-18T02:42:55.891Z,21.20
2022-12-18T02:45:24.349Z,21.20
2022-12-18T02:47:52.641Z,21.20
2022-12-18T02:50:42.406Z,21.20
2022-12-18T02:53:37.860Z,21.20
2022-12-18T02:56:19.465Z,21.20
2022-12-18T02:59:01.628Z,21.20
2022-12-18T03:02:11.813Z,21.20
2022-12-18T03:04:44.955Z,21.10
2022-12-18T03:07:19.323Z,21.10
2022-12-18T03:09:50.255Z,21.10
2022-12-18T03:12:20.566Z,21.10
2022-12-18T03:14:56.621Z,21.00
2022-12-18T03:17:27.580Z,21.00
2022-12-18T03:19:59.496Z,21.00
2022-12-18T03:22:31.112Z,21.00
2022-12-18T03:24:59.201Z,20.90
2022-12-18T03:27:28.331Z,20.90
2022-12-18T03:30:04.592Z,20.80
2022-12-18T03:32:34.225Z,20.80
2022-12-18T03:35:05.527Z,20.80
2022-12-18T03:37:36.534Z,20.80
2022-12-18T03:40:05.882Z,20.70
2022-12-18T03:42:41.299Z,20.70
2022-12-18T03:45:32.660Z,20.70
2022-12-18T03:47:59.975Z,20.60
2022-12-18T03:50:44.014Z,20.60
2022-12-18T03:53:30.387Z,20.60
2022-12-18T03:56:00.197Z,20.60
2022-12-18T03:58:35.172Z,20.50
2022-12-18T04:01:16.059Z,20.50
2022-12-18T04:03:46.097Z,20.50
2022-12-18T04:06:15.364Z,20.50
2022-12-18T04:08:44.678Z,20.50
2022-12-18T04:11:14.571Z,20.60
2022-12-18T04:13:44.071Z,20.60
2022-12-18T04:16:18.192Z,20.70
2022-12-18T04:18:46.328Z,20.70
2022-12-18T04:21:14.975Z,20.80
2022-12-18T04:23:42.753Z,20.80
2022-12-18T04:26:10.161Z,20.80
2022-12-18T04:28:48.116Z,20.80
2022-12-18T04:31:15.781Z,20.80
2022-12-18T04:33:42.924Z,20.80
2022-12-18T04:36:10.773Z,20.80
2022-12-18T04:38:38.201Z,20.80
2022-12-18T04:41:09.012Z,20.70
2022-12-18T04:43:36.766Z,20.80
2022-12-18T04:46:05.088Z,20.70
2022-12-18T04:48:31.972Z,20.70
2022-12-18T04:50:58.954Z,20.70
2022-12-18T04:53:25.973Z,20.70
2022-12-18T04:56:04.050Z,20.60
2022-12-18T04:58:31.159Z,20.60
2022-12-18T05:00:58.120Z,20.60
2022-12-18T05:03:25.190Z,20.60
2022-12-18T05:05:52.428Z,20.50
2022-12-18T05:08:19.556Z,20.50
2022-12-18T05:10:46.983Z,20.50
2022-12-18T05:13:13.789Z,20.50
2022-12-18T05:15:40.577Z,20.40
2022-12-18T05:18:07.641Z,20.40
2022-12-18T05:20:34.791Z,20.40
2022-12-18T05:23:01.631Z,20.30
2022-12-18T05:25:28.493Z,20.30
2022-12-18T05:27:55.334Z,20.30
2022-12-18T05:30:22.160Z,20.20
2022-12-18T05:32:49.139Z,20.20
2022-12-18T05:35:15.968Z,20.30
2022-12-18T05:37:43.554Z,20.30
2022-12-18T05:40:11.831Z,20.30
2022-12-18T05:42:38.891Z,20.30
2022-12-18T05:45:06.535Z,20.40
2022-12-18T05:47:33.488Z,20.40
2022-12-18T05:50:00.240Z,20.40
2022-12-18T05:52:27.001Z,20.40
2022-12-18T05:54:53.821Z,20.10
2022-12-18T05:57:20.571Z,20.20
2022-12-18T05:59:47.360Z,20.20
2022-12-18T06:02:14.203Z,20.30
2022-12-18T06:04:41.265Z,20.30
2022-12-18T06:07:08.197Z,20.40
2022-12-18T06:09:34.996Z,20.40
2022-12-18T06:12:01.756Z,20.40
2022-12-18T06:14:28.572Z,20.40
2022-12-18T06:16:55.499Z,20.30
2022-12-18T06:19:22.274Z,20.40
2022-12-18T06:21:49.008Z,20.30
2022-12-18T06:24:16.054Z,20.30
2022-12-18T06:26:42.826Z,20.30
2022-12-18T06:29:09.752Z,20.20
2022-12-18T06:31:36.665Z,20.20
2022-12-18T06:34:04.851Z,20.20
2022-12-18T06:36:32.085Z,20.20
2022-12-18T06:38:59.027Z,20.20
2022-12-18T06:41:25.892Z,20.10
2022-12-18T06:43:58.164Z,20.10
2022-12-18T06:46:26.815Z,20.10
2022-12-18T06:48:53.718Z,20.10
2022-12-18T06:51:22.007Z,20.10
2022-12-18T06:53:49.129Z,20.00
2022-12-18T06:56:16.258Z,20.10
2022-12-18T06:58:43.357Z,20.10
2022-12-18T07:01:12.110Z,20.10
2022-12-18T07:03:41.500Z,20.20
2022-12-18T07:06:18.931Z,20.20
2022-12-18T07:08:46.991Z,20.20
2022-12-18T07:11:14.304Z,20.20
2022-12-18T07:13:41.629Z,20.20
2022-12-18T07:16:23.932Z,20.30
2022-12-18T07:18:51.984Z,20.30
2022-12-18T07:21:20.674Z,20.30
2022-12-18T07:23:47.795Z,20.30
2022-12-18T07:26:17.210Z,20.20
2022-12-18T07:28:44.095Z,20.30
2022-12-18T07:31:14.358Z,20.20
2022-12-18T07:33:42.200Z,20.20
2022-12-18T07:36:10.356Z,20.20
2022-12-18T07:38:37.965Z,20.20
2022-12-18T07:41:12.847Z,20.20
2022-12-18T07:43:41.792Z,20.20
2022-12-18T07:46:09.983Z,20.20
2022-12-18T07:48:37.017Z,20.20
2022-12-18T07:51:05.400Z,20.20
2022-12-18T07:53:33.676Z,20.10
2022-12-18T07:56:26.386Z,20.10
2022-12-18T07:58:49.819Z,20.10
2022-12-18T08:01:16.742Z,20.10
2022-12-18T08:03:44.061Z,20.10
2022-12-18T08:06:11.509Z,20.10
2022-12-18T08:08:38.531Z,20.10
2022-12-18T08:11:05.460Z,20.00
2022-12-18T08:13:32.643Z,20.00
2022-12-18T08:16:05.844Z,20.00
2022-12-18T08:18:34.702Z,20.00
2022-12-18T08:21:14.644Z,19.90
2022-12-18T08:23:43.368Z,20.00
2022-12-18T08:26:11.653Z,19.90
2022-12-18T08:28:39.178Z,19.90
2022-12-18T08:31:06.852Z,19.90
2022-12-18T08:33:34.288Z,20.00
2022-12-18T08:36:02.271Z,20.00
2022-12-18T08:38:29.319Z,20.00
2022-12-18T08:41:00.411Z,20.00
2022-12-18T08:43:27.426Z,20.10
2022-12-18T08:45:54.784Z,20.10
2022-12-18T08:48:25.183Z,20.10
2022-12-18T08:50:59.401Z,20.10
2022-12-18T08:53:31.432Z,20.10
2022-12-18T08:56:00.924Z,20.10
2022-12-18T08:58:27.723Z,20.00
2022-12-18T09:00:54.560Z,20.10
2022-12-18T09:03:22.337Z,20.10
2022-12-18T09:05:49.334Z,20.00
2022-12-18T09:08:16.111Z,19.90
2022-12-18T09:10:44.555Z,19.40
2022-12-18T09:13:12.739Z,19.50
2022-12-18T09:15:50.716Z,19.60
2022-12-18T09:18:19.156Z,19.80
2022-12-18T09:20:46.307Z,19.90
2022-12-18T09:23:13.879Z,19.90
2022-12-18T09:25:40.969Z,19.90
2022-12-18T09:28:14.166Z,19.80
2022-12-18T09:30:42.611Z,19.80
2022-12-18T09:33:09.405Z,19.80
2022-12-18T09:35:39.947Z,19.30
2022-12-18T09:38:07.158Z,19.10
2022-12-18T09:40:43.449Z,19.20
2022-12-18T09:43:19.987Z,19.40
2022-12-18T09:45:53.017Z,19.50
2022-12-18T09:48:27.348Z,19.60
2022-12-18T09:51:01.722Z,19.80
2022-12-18T09:53:35.156Z,19.90
2022-12-18T09:56:04.568Z,20.00
2022-12-18T09:58:46.406Z,20.10
2022-12-18T10:01:16.678Z,20.20
2022-12-18T10:03:45.938Z,20.30
2022-12-18T10:06:23.953Z,20.30
2022-12-18T10:09:05.931Z,20.40
2022-12-18T10:12:00.359Z,20.40
2022-12-18T10:14:38.996Z,20.50
2022-12-18T10:17:29.310Z,20.50
2022-12-18T10:19:58.871Z,20.60
2022-12-18T10:22:56.537Z,20.60
2022-12-18T10:26:01.802Z,20.70
2022-12-18T10:28:31.274Z,20.70
2022-12-18T10:30:58.952Z,20.80
2022-12-18T10:33:30.719Z,20.80
2022-12-18T10:35:57.517Z,20.80
2022-12-18T10:38:28.268Z,20.80
2022-12-18T10:41:08.160Z,20.80
2022-12-18T10:43:41.450Z,20.90
2022-12-18T10:46:11.252Z,20.80
2022-12-18T10:48:48.595Z,20.70
2022-12-18T10:51:25.797Z,20.60
2022-12-18T10:53:58.695Z,20.60
2022-12-18T10:56:28.511Z,20.60
2022-12-18T10:59:01.621Z,20.70
2022-12-18T11:01:32.049Z,20.70
2022-12-18T11:04:02.083Z,20.60
2022-12-18T11:06:30.364Z,20.50
2022-12-18T11:09:07.857Z,20.30
2022-12-18T11:11:39.206Z,20.20
2022-12-18T11:14:22.053Z,20.30
2022-12-18T11:17:24.374Z,20.40
2022-12-18T11:19:42.431Z,20.50
2022-12-18T11:22:20.518Z,20.50
2022-12-18T11:25:22.840Z,20.50
2022-12-18T11:27:41.570Z,20.50
2022-12-18T11:30:24.505Z,20.50
2022-12-18T11:33:02.767Z,20.40
2022-12-18T11:35:38.625Z,20.40
2022-12-18T11:38:29.923Z,20.40
2022-12-18T11:41:05.609Z,20.40
2022-12-18T11:43:42.349Z,20.50
2022-12-18T11:46:19.392Z,20.40
2022-12-18T11:49:16.396Z,20.40
2022-12-18T11:51:51.465Z,20.40
2022-12-18T11:54:18.468Z,20.40
2022-12-18T11:56:56.127Z,20.30
2022-12-18T11:59:35.930Z,20.30
2022-12-18T12:02:39.513Z,20.30
2022-12-18T12:05:21.192Z,20.30
2022-12-18T12:07:54.226Z,20.30
2022-12-18T12:10:34.758Z,20.20
2022-12-18T12:13:04.265Z,20.20
2022-12-18T12:15:55.198Z,20.20
2022-12-18T12:18:46.524Z,20.20
2022-12-18T12:21:38.951Z,20.10
2022-12-18T12:24:05.639Z,20.10
2022-12-18T12:27:03.047Z,20.10
2022-12-18T12:29:54.415Z,20.20
2022-12-18T12:32:29.398Z,20.20
2022-12-18T12:35:10.033Z,20.30
2022-12-18T12:37:51.765Z,20.30
2022-12-18T12:40:50.144Z,20.40
2022-12-18T12:43:34.563Z,20.40
2022-12-18T12:46:07.761Z,20.50
2022-12-18T12:48:44.143Z,20.50
2022-12-18T12:51:38.510Z,20.60
2022-12-18T12:54:13.930Z,20.70
2022-12-18T12:57:24.404Z,20.70
2022-12-18T12:59:59.669Z,20.70
2022-12-18T13:03:02.364Z,20.70
2022-12-18T13:05:55.252Z,20.70
2022-12-18T13:08:27.467Z,20.70
2022-12-18T13:10:59.785Z,20.70
2022-12-18T13:13:26.608Z,20.70
2022-12-18T13:16:09.264Z,20.70
2022-12-18T13:18:36.529Z,20.80
2022-12-18T13:21:18.681Z,20.80
2022-12-18T13:23:46.168Z,20.70
2022-12-18T13:26:26.455Z,20.80
2022-12-18T13:28:56.826Z,20.70
2022-12-18T13:31:42.542Z,20.70
2022-12-18T13:34:31.151Z,20.70
2022-12-18T13:37:40.367Z,20.70
2022-12-18T13:40:45.328Z,20.70
2022-12-18T13:43:18.841Z,20.60
2022-12-18T13:46:05.998Z,20.50
2022-12-18T13:48:38.116Z,20.60
2022-12-18T13:51:11.579Z,20.50
2022-12-18T13:53:47.625Z,20.50
2022-12-18T13:56:21.950Z,20.50
2022-12-18T13:59:13.020Z,20.50
2022-12-18T14:02:04.193Z,20.60
2022-12-18T14:04:34.017Z,20.60
2022-12-18T14:07:08.231Z,20.60
2022-12-18T14:09:46.568Z,20.60
2022-12-18T14:12:35.948Z,20.60
2022-12-18T14:15:04.935Z,20.50
2022-12-18T14:17:32.962Z,20.50
2022-12-18T14:20:01.448Z,20.40
2022-12-18T14:22:28.400Z,20.40
2022-12-18T14:25:13.734Z,20.40
2022-12-18T14:27:47.574Z,20.30
2022-12-18T14:30:28.830Z,20.20
2022-12-18T14:33:26.291Z,20.20
2022-12-18T14:35:56.443Z,20.10
2022-12-18T14:38:40.947Z,20.10
2022-12-18T14:41:16.035Z,20.10
2022-12-18T14:43:48.864Z,20.10
2022-12-18T14:46:35.261Z,20.10
2022-12-18T14:49:03.952Z,20.20
2022-12-18T14:51:35.607Z,20.20
2022-12-18T14:54:07.247Z,20.20
2022-12-18T14:56:37.456Z,20.20
2022-12-18T14:59:15.992Z,20.20
2022-12-18T15:02:12.522Z,20.20
2022-12-18T15:04:44.548Z,20.20
2022-12-18T15:07:21.895Z,20.20
2022-12-18T15:10:04.546Z,20.30
2022-12-18T15:12:40.227Z,20.20
2022-12-18T15:15:39.490Z,20.20
2022-12-18T15:18:09.892Z,20.30
2022-12-18T15:20:49.248Z,20.30
2022-12-18T15:23:24.312Z,20.20
2022-12-18T15:26:02.303Z,19.80
2022-12-18T15:28:55.228Z,19.80
2022-12-18T15:31:33.764Z,19.90
2022-12-18T15:34:03.743Z,19.90
2022-12-18T15:36:31.365Z,20.00
2022-12-18T15:39:04.739Z,20.00
2022-12-18T15:41:37.023Z,20.00
2022-12-18T15:44:21.799Z,20.00
2022-12-18T15:46:51.325Z,20.00
2022-12-18T15:49:19.566Z,20.00
2022-12-18T15:51:52.702Z,20.00
2022-12-18T15:54:20.589Z,20.00
2022-12-18T15:56:49.240Z,19.90
2022-12-18T15:59:20.755Z,19.90
2022-12-18T16:01:51.940Z,19.90
2022-12-18T16:04:21.907Z,19.90
2022-12-18T16:07:14.326Z,19.80
2022-12-18T16:09:40.097Z,19.80
2022-12-18T16:12:13.374Z,19.80
2022-12-18T16:14:41.444Z,19.80
2022-12-18T16:17:12.336Z,19.70
2022-12-18T16:19:40.280Z,19.70
2022-12-18T16:22:21.742Z,19.70
2022-12-18T16:24:50.207Z,19.70
2022-12-18T16:27:18.873Z,19.60
2022-12-18T16:29:47.056Z,19.60
2022-12-18T16:32:18.022Z,19.60
2022-12-18T16:34:46.239Z,19.60
2022-12-18T16:37:15.777Z,19.60
2022-12-18T16:39:44.345Z,19.50
2022-12-18T16:42:16.603Z,19.50
2022-12-18T16:44:44.765Z,19.50
2022-12-18T16:47:15.169Z,19.50
2022-12-18T16:49:44.369Z,19.40
2022-12-18T16:52:12.300Z,19.40
2022-12-18T16:54:39.859Z,19.40
2022-12-18T16:57:12.878Z,19.30
2022-12-18T16:59:41.698Z,19.30
2022-12-18T17:02:17.223Z,19.30
2022-12-18T17:04:47.610Z,19.00
2022-12-18T17:07:16.320Z,18.60
2022-12-18T17:09:44.021Z,18.70
2022-12-18T17:12:11.270Z,18.80
2022-12-18T17:14:38.538Z,18.30
2022-12-18T17:17:20.820Z,18.10
2022-12-18T17:19:51.855Z,18.30
2022-12-18T17:22:20.285Z,18.50
2022-12-18T17:24:48.523Z,18.50
2022-12-18T17:27:16.649Z,17.50
2022-12-18T17:29:48.211Z,17.60
2022-12-18T17:32:19.705Z,17.80
2022-12-18T17:34:47.878Z,18.00
2022-12-18T17:37:15.764Z,18.20
2022-12-18T17:39:48.807Z,18.30
2022-12-18T17:42:16.311Z,18.40
2022-12-18T17:44:44.260Z,18.40
2022-12-18T17:47:12.779Z,17.50
2022-12-18T17:49:41.170Z,15.70
2022-12-18T17:52:09.079Z,15.70
2022-12-18T17:54:36.895Z,15.50
2022-12-18T17:57:04.522Z,16.10
2022-12-18T17:59:33.361Z,16.70
2022-12-18T18:02:01.617Z,17.20
2022-12-18T18:04:30.723Z,17.40
2022-12-18T18:06:58.074Z,17.70
2022-12-18T18:09:25.469Z,17.80
2022-12-18T18:11:53.634Z,17.90
2022-12-18T18:14:23.409Z,17.90
2022-12-18T18:16:53.688Z,18.00
2022-12-18T18:19:24.959Z,18.10
2022-12-18T18:21:53.963Z,18.10
2022-12-18T18:24:23.786Z,18.10
2022-12-18T18:26:51.660Z,18.20
2022-12-18T18:29:26.718Z,18.30
2022-12-18T18:31:55.369Z,18.30
2022-12-18T18:34:25.390Z,18.30
2022-12-18T18:36:53.112Z,18.40
2022-12-18T18:39:21.127Z,18.50
2022-12-18T18:41:49.251Z,18.60
2022-12-18T18:44:20.247Z,18.70
2022-12-18T18:46:49.358Z,18.70
2022-12-18T18:49:21.940Z,18.80
2022-12-18T18:51:51.436Z,19.00
2022-12-18T18:54:19.187Z,19.20
2022-12-18T18:57:20.057Z,19.20
2022-12-18T18:59:36.111Z,19.30
2022-12-18T19:02:04.582Z,19.50
2022-12-18T19:04:34.387Z,19.60
2022-12-18T19:07:02.535Z,19.70
2022-12-18T19:09:30.371Z,19.80
2022-12-18T19:11:58.193Z,19.80
2022-12-18T19:14:25.781Z,19.90
2022-12-18T19:16:53.444Z,19.90
2022-12-18T19:19:21.587Z,19.90
2022-12-18T19:21:49.532Z,20.00
2022-12-18T19:24:17.680Z,19.90
2022-12-18T19:26:45.318Z,19.60
2022-12-18T19:29:12.987Z,19.30
2022-12-18T19:31:41.158Z,19.40
2022-12-18T19:34:09.707Z,19.50
2022-12-18T19:36:39.637Z,19.60
2022-12-18T19:39:13.099Z,19.80
2022-12-18T19:41:41.439Z,19.90
2022-12-18T19:44:11.174Z,19.90
2022-12-18T19:46:41.768Z,20.00
2022-12-18T19:49:11.113Z,20.00
2022-12-18T19:51:39.106Z,20.10
2022-12-18T19:54:06.652Z,20.10
2022-12-18T19:56:37.134Z,20.10
2022-12-18T19:59:05.667Z,20.10
2022-12-18T20:01:33.838Z,20.20
2022-12-18T20:04:01.917Z,20.20
2022-12-18T20:06:33.664Z,20.30
2022-12-18T20:09:06.974Z,20.30
2022-12-18T20:11:38.849Z,20.30
2022-12-18T20:14:11.676Z,20.30
2022-12-18T20:16:39.629Z,20.30
2022-12-18T20:19:08.749Z,20.30
2022-12-18T20:21:37.013Z,20.20
2022-12-18T20:24:04.627Z,20.30
2022-12-18T20:26:32.192Z,20.30
2022-12-18T20:28:59.559Z,20.30
2022-12-18T20:31:27.097Z,20.40
2022-12-18T20:33:59.588Z,20.40
2022-12-18T20:36:28.281Z,20.40
2022-12-18T20:38:59.445Z,20.50
2022-12-18T20:41:37.421Z,20.60
